Hildegaard — C6QU3 — position and weather

sailwx.info

Track history (hours):
 
Tides and Currents Weather Stations Pressure Air Temp Water Temp Dewpoint Dewpoint Depression Visibility Wind Speed Wind Dir Waves Ship Positions

Hildegaard

Last reported at 2016-Oct-01 00:33 UTC. Time now 2016-Oct-01 01:28 UTC.
Position N 53°32' E 000°07'.

Length 248 m; draft 11.9 m.

Type: Ship (hazmat cat A). MMSI: 308574000.

Date/timePositionNaut miles runAvg speedWind from/ knotsBaromVisibWave heightAir tempDewpointWater temp
2016-Oct-01 00:33N 53°32' E 000°07'0 0.1
2016-Sep-30 22:24N 53°32' E 000°07'0 0.0
2016-Sep-30 20:21N 53°32' E 000°07'0 0.2
2016-Sep-30 17:33N 53°32' E 000°08'6 5.5
2016-Sep-30 16:33N 53°34' E 000°17'9 4.7
2016-Sep-30 14:33N 53°43' E 000°21'8 1.9
2016-Sep-30 10:23N 53°51' E 000°18'0 0.0
2016-Sep-30 08:11N 53°51' E 000°18'0 0.1
2016-Sep-30 06:14N 53°51' E 000°18'0 0.1
2016-Sep-30 02:29N 53°51' E 000°18'0 0.1
2016-Sep-29 23:17N 53°51' E 000°18'0 0.0
2016-Sep-29 21:23N 53°51' E 000°18'1 1.1
2016-Sep-29 20:33N 53°52' E 000°18'9 8.2
2016-Sep-29 19:28N 54°01' E 000°14'3411.6
2016-Sep-29 16:33N 54°28' W 000°18'26 0.6
2016-Sep-27 19:33N 54°43' W 000°55'0 0.0
2016-Sep-27 14:33N 54°43' W 000°55'0 0.2
2016-Sep-27 13:33N 54°43' W 000°55'1 0.2
2016-Sep-27 10:33N 54°43' W 000°54'1 0.1
2016-Sep-27 00:32N 54°43' W 000°55'2 0.6
2016-Sep-26 20:33N 54°41' W 000°54'1 0.5
2016-Sep-26 19:33N 54°41' W 000°54'8 2.0
2016-Sep-26 15:33N 54°37' W 000°42'11 4.9
2016-Sep-26 13:21N 54°30' W 000°29'12 6.6
2016-Sep-26 11:33N 54°22' W 000°13'18 6.0
2016-Sep-26 08:34N 54°08' E 000°05'35 5.8
2016-Sep-26 02:33N 53°32' E 000°07'0 0.1
2016-Sep-26 01:18N 53°33' E 000°07'0 0.1
2016-Sep-26 00:33N 53°33' E 000°07'0 0.1
2016-Sep-25 21:09N 53°32' E 000°07'0 0.1
2016-Sep-25 17:30N 53°32' E 000°07'0 0.0
2016-Sep-25 16:33N 53°32' E 000°07'0 0.0
2016-Sep-25 15:33N 53°32' E 000°07'0 0.0
2016-Sep-25 14:21N 53°32' E 000°07'0 0.2
2016-Sep-25 12:33N 53°32' E 000°07'0 0.0
2016-Sep-25 11:21N 53°32' E 000°07'0 0.0
2016-Sep-25 09:21N 53°32' E 000°07'0 0.2
2016-Sep-25 07:24N 53°32' E 000°07'0 0.1
2016-Sep-25 04:27N 53°32' E 000°07'0 0.0
2016-Sep-25 00:33N 53°32' E 000°07'12 6.0
2016-Sep-24 22:33N 53°40' E 000°23'2 1.5
2016-Sep-24 21:33N 53°41' E 000°25'8 3.9
2016-Sep-24 19:33N 53°48' E 000°19'3 1.5
2016-Sep-24 17:27N 53°51' E 000°18'0 0.0
2016-Sep-24 16:30N 53°51' E 000°18'0 0.0
2016-Sep-24 12:33N 53°51' E 000°18'0 0.1
2016-Sep-24 10:33N 53°51' E 000°18'0 0.0
2016-Sep-24 09:18N 53°51' E 000°18'0 0.0
2016-Sep-24 03:27N 53°51' E 000°18'0 0.0
2016-Sep-24 01:33N 53°51' E 000°18'0 0.0
2016-Sep-24 00:15N 53°51' E 000°18'0 0.1
2016-Sep-23 19:33N 53°50' E 000°18'0 0.1
2016-Sep-23 17:24N 53°51' E 000°18'0 0.0
2016-Sep-23 16:27N 53°51' E 000°18'0 0.0
2016-Sep-23 09:03N 53°50' E 000°18'0 0.0
2016-Sep-23 06:24N 53°50' E 000°18'0 0.0
2016-Sep-23 00:27N 53°51' E 000°18'0 0.2
2016-Sep-22 23:30N 53°51' E 000°18'0 0.1
2016-Sep-22 20:33N 53°50' E 000°18'0 0.0
2016-Sep-22 12:27N 53°51' E 000°18'0 0.0
2016-Sep-22 00:24N 53°51' E 000°18'0 0.0
2016-Sep-21 23:21N 53°51' E 000°18'0 0.1
2016-Sep-21 19:24N 53°51' E 000°18'0 0.1
2016-Sep-21 16:27N 53°51' E 000°18'0 0.0
2016-Sep-21 09:21N 53°51' E 000°18'  
Track history (hours):
 
Tides and Currents Weather Stations Pressure Air Temp Water Temp Dewpoint Dewpoint Depression Visibility Wind Speed Wind Dir Waves Ship Positions

Hildegaard

Last reported at 2016-Oct-01 00:33 UTC. Time now 2016-Oct-01 01:28 UTC.
Position N 53°32' E 000°07'.

Length 248 m; draft 11.9 m.

Type: Ship (hazmat cat A). MMSI: 308574000.

Date/timePositionNaut miles runAvg speedWind from/ knotsBaromVisibWave heightAir tempDewpointWater temp
2016-Oct-01 00:33N 53°32' E 000°07'0 0.1
2016-Sep-30 22:24N 53°32' E 000°07'0 0.0
2016-Sep-30 20:21N 53°32' E 000°07'0 0.2
2016-Sep-30 17:33N 53°32' E 000°08'6 5.5
2016-Sep-30 16:33N 53°34' E 000°17'9 4.7
2016-Sep-30 14:33N 53°43' E 000°21'8 1.9
2016-Sep-30 10:23N 53°51' E 000°18'0 0.0
2016-Sep-30 08:11N 53°51' E 000°18'0 0.1
2016-Sep-30 06:14N 53°51' E 000°18'0 0.1
2016-Sep-30 02:29N 53°51' E 000°18'0 0.1
2016-Sep-29 23:17N 53°51' E 000°18'0 0.0
2016-Sep-29 21:23N 53°51' E 000°18'1 1.1
2016-Sep-29 20:33N 53°52' E 000°18'9 8.2
2016-Sep-29 19:28N 54°01' E 000°14'3411.6
2016-Sep-29 16:33N 54°28' W 000°18'26 0.6
2016-Sep-27 19:33N 54°43' W 000°55'0 0.0
2016-Sep-27 14:33N 54°43' W 000°55'0 0.2
2016-Sep-27 13:33N 54°43' W 000°55'1 0.2
2016-Sep-27 10:33N 54°43' W 000°54'1 0.1
2016-Sep-27 00:32N 54°43' W 000°55'2 0.6
2016-Sep-26 20:33N 54°41' W 000°54'1 0.5
2016-Sep-26 19:33N 54°41' W 000°54'8 2.0
2016-Sep-26 15:33N 54°37' W 000°42'11 4.9
2016-Sep-26 13:21N 54°30' W 000°29'12 6.6
2016-Sep-26 11:33N 54°22' W 000°13'18 6.0
2016-Sep-26 08:34N 54°08' E 000°05'35 5.8
2016-Sep-26 02:33N 53°32' E 000°07'0 0.1
2016-Sep-26 01:18N 53°33' E 000°07'0 0.1
2016-Sep-26 00:33N 53°33' E 000°07'0 0.1
2016-Sep-25 21:09N 53°32' E 000°07'0 0.1
2016-Sep-25 17:30N 53°32' E 000°07'0 0.0
2016-Sep-25 16:33N 53°32' E 000°07'0 0.0
2016-Sep-25 15:33N 53°32' E 000°07'0 0.0
2016-Sep-25 14:21N 53°32' E 000°07'0 0.2
2016-Sep-25 12:33N 53°32' E 000°07'0 0.0
2016-Sep-25 11:21N 53°32' E 000°07'0 0.0
2016-Sep-25 09:21N 53°32' E 000°07'0 0.2
2016-Sep-25 07:24N 53°32' E 000°07'0 0.1
2016-Sep-25 04:27N 53°32' E 000°07'0 0.0
2016-Sep-25 00:33N 53°32' E 000°07'12 6.0
2016-Sep-24 22:33N 53°40' E 000°23'2 1.5
2016-Sep-24 21:33N 53°41' E 000°25'8 3.9
2016-Sep-24 19:33N 53°48' E 000°19'3 1.5
2016-Sep-24 17:27N 53°51' E 000°18'0 0.0
2016-Sep-24 16:30N 53°51' E 000°18'0 0.0
2016-Sep-24 12:33N 53°51' E 000°18'0 0.1
2016-Sep-24 10:33N 53°51' E 000°18'0 0.0
2016-Sep-24 09:18N 53°51' E 000°18'0 0.0
2016-Sep-24 03:27N 53°51' E 000°18'0 0.0
2016-Sep-24 01:33N 53°51' E 000°18'0 0.0
2016-Sep-24 00:15N 53°51' E 000°18'0 0.1
2016-Sep-23 19:33N 53°50' E 000°18'0 0.1
2016-Sep-23 17:24N 53°51' E 000°18'0 0.0
2016-Sep-23 16:27N 53°51' E 000°18'0 0.0
2016-Sep-23 09:03N 53°50' E 000°18'0 0.0
2016-Sep-23 06:24N 53°50' E 000°18'0 0.0
2016-Sep-23 00:27N 53°51' E 000°18'0 0.2
2016-Sep-22 23:30N 53°51' E 000°18'0 0.1
2016-Sep-22 20:33N 53°50' E 000°18'0 0.0
2016-Sep-22 12:27N 53°51' E 000°18'0 0.0
2016-Sep-22 00:24N 53°51' E 000°18'0 0.0
2016-Sep-21 23:21N 53°51' E 000°18'0 0.1
2016-Sep-21 19:24N 53°51' E 000°18'0 0.1
2016-Sep-21 16:27N 53°51' E 000°18'0 0.0
2016-Sep-21 09:21N 53°51' E 000°18'  

Dump ship's entire track history